Time;durP1;ratioP1;P1;durP2;ratioP2;P2;SDS_P1;SDS_P2;PMS_P1;PMS_P2;Temp;Humidity;BMP_temperature;BMP_pressure;BME280_temperature;BME280_humidity;BME280_pressure;Samples;Min_cycle;Max_cycle;Signal;HPM_P1;HPM_P2
2024/03/01 00:02:07;;;;;;;14.05;5.38;;;13.40;88.10;;;;;;5075094;28;20150;-74
2024/03/01 00:04:33;;;;;;;14.70;5.85;;;13.30;88.10;;;;;;5074815;28;20090;-74
2024/03/01 00:06:59;;;;;;;11.13;5.47;;;13.30;88.10;;;;;;5074491;28;20052;-74
2024/03/01 00:09:24;;;;;;;16.00;5.43;;;13.30;88.20;;;;;;5074704;28;20017;-74
2024/03/01 00:11:50;;;;;;;18.23;6.20;;;13.30;88.30;;;;;;5074610;28;20530;-73
2024/03/01 00:14:15;;;;;;;15.73;5.85;;;13.30;88.40;;;;;;5074587;28;20545;-74
2024/03/01 00:16:41;;;;;;;14.15;5.75;;;13.30;88.40;;;;;;5074293;28;20513;-73
2024/03/01 00:19:07;;;;;;;13.55;5.65;;;13.20;88.30;;;;;;5074341;28;20033;-74
2024/03/01 00:21:32;;;;;;;18.58;6.55;;;13.20;88.70;;;;;;5074374;28;20086;-73
2024/03/01 00:23:58;;;;;;;15.13;6.60;;;13.20;89.20;;;;;;5074448;28;20085;-73
2024/03/01 00:26:24;;;;;;;15.40;5.63;;;13.20;88.80;;;;;;5074489;28;20036;-73
2024/03/01 00:28:49;;;;;;;16.17;5.50;;;13.20;88.70;;;;;;5073562;28;20028;-74
2024/03/01 00:31:15;;;;;;;15.15;5.55;;;13.20;88.70;;;;;;5073984;28;20052;-73
2024/03/01 00:33:41;;;;;;;18.40;5.60;;;13.20;88.80;;;;;;5056055;28;20079;-73
2024/03/01 00:36:06;;;;;;;20.05;5.75;;;13.20;88.90;;;;;;5073777;28;20495;-74
2024/03/01 00:38:32;;;;;;;10.60;5.00;;;13.20;88.80;;;;;;5074423;28;20028;-72
2024/03/01 00:40:58;;;;;;;12.80;5.63;;;13.20;88.90;;;;;;5073895;28;20478;-73
2024/03/01 00:43:23;;;;;;;21.40;5.97;;;13.20;88.90;;;;;;5074094;28;20063;-74
2024/03/01 00:45:49;;;;;;;12.95;6.03;;;13.10;88.90;;;;;;5073712;28;20072;-73
2024/03/01 00:48:15;;;;;;;13.13;5.35;;;13.10;89.20;;;;;;5073531;28;20043;-73
2024/03/01 00:50:41;;;;;;;17.27;6.20;;;13.10;89.30;;;;;;5073689;28;20112;-74
2024/03/01 00:53:08;;;;;;;15.18;6.57;;;13.00;89.30;;;;;;5073692;28;20032;-73
2024/03/01 00:55:35;;;;;;;13.07;5.45;;;13.00;89.50;;;;;;5073816;28;20039;-72
2024/03/01 00:58:00;;;;;;;14.48;5.50;;;13.00;89.30;;;;;;5073761;28;20055;-73
2024/03/01 01:00:27;;;;;;;16.92;5.60;;;13.00;89.30;;;;;;5073329;28;20028;-73
2024/03/01 01:02:53;;;;;;;15.70;6.00;;;13.00;89.50;;;;;;5073579;28;20033;-73
2024/03/01 01:05:19;;;;;;;12.38;6.03;;;13.00;89.50;;;;;;5073282;28;20487;-73
2024/03/01 01:07:45;;;;;;;14.38;5.60;;;13.00;89.70;;;;;;5073470;28;20055;-72
2024/03/01 01:10:11;;;;;;;16.17;6.45;;;13.00;89.80;;;;;;5073560;28;20033;-74
2024/03/01 01:12:37;;;;;;;17.00;6.68;;;13.00;89.70;;;;;;5073349;28;20056;-74
2024/03/01 01:15:04;;;;;;;14.13;6.03;;;13.00;89.90;;;;;;5073237;28;20036;-74
2024/03/01 01:17:30;;;;;;;20.27;7.13;;;13.00;90.00;;;;;;5073203;28;20025;-73
2024/03/01 01:19:57;;;;;;;14.25;6.68;;;13.00;90.00;;;;;;5073156;28;20121;-73
2024/03/01 01:22:23;;;;;;;19.88;7.28;;;13.00;90.00;;;;;;5073339;28;20391;-73
2024/03/01 01:24:49;;;;;;;15.70;6.30;;;12.90;90.00;;;;;;5072905;28;20036;-73
2024/03/01 01:27:15;;;;;;;17.52;6.88;;;12.90;90.00;;;;;;5072924;28;20043;-73
2024/03/01 01:29:40;;;;;;;17.92;7.63;;;12.90;90.10;;;;;;5072825;28;20036;-73
2024/03/01 01:32:07;;;;;;;11.68;6.63;;;12.90;90.10;;;;;;5073068;28;20055;-73
2024/03/01 01:34:33;;;;;;;13.98;6.38;;;13.00;90.10;;;;;;5072623;28;20044;-73
2024/03/01 01:36:59;;;;;;;17.38;7.18;;;13.00;90.20;;;;;;5072738;28;20037;-72
2024/03/01 01:39:24;;;;;;;22.65;7.57;;;12.90;90.10;;;;;;5072713;28;20025;-72
2024/03/01 01:41:50;;;;;;;13.05;6.93;;;12.90;90.10;;;;;;5073103;28;20557;-73
2024/03/01 01:44:16;;;;;;;15.55;7.03;;;12.90;90.10;;;;;;5072700;28;20031;-73
2024/03/01 01:46:44;;;;;;;16.08;6.95;;;12.90;90.10;;;;;;5072827;28;20514;-73
2024/03/01 01:49:10;;;;;;;14.75;5.82;;;12.90;90.20;;;;;;5072692;28;20059;-73
2024/03/01 01:51:36;;;;;;;14.63;6.00;;;12.80;90.10;;;;;;5072636;28;20028;-73
2024/03/01 01:54:03;;;;;;;15.60;6.20;;;12.90;90.10;;;;;;5072960;28;20075;-74
2024/03/01 01:56:29;;;;;;;17.35;6.45;;;12.80;90.20;;;;;;5072712;28;20037;-73
2024/03/01 01:58:56;;;;;;;14.07;5.35;;;12.80;90.20;;;;;;5072552;28;20087;-73
2024/03/01 02:01:22;;;;;;;16.92;6.40;;;12.80;90.20;;;;;;5072401;28;20431;-73
2024/03/01 02:03:49;;;;;;;17.50;5.57;;;12.80;90.20;;;;;;5072200;28;20542;-73
2024/03/01 02:06:15;;;;;;;15.80;5.70;;;12.80;90.20;;;;;;5072301;28;20054;-73
2024/03/01 02:08:40;;;;;;;17.40;5.63;;;12.70;90.10;;;;;;5072430;28;20103;-74
2024/03/01 02:11:06;;;;;;;14.43;5.32;;;12.70;90.10;;;;;;5072528;28;20112;-74
2024/03/01 02:13:32;;;;;;;10.57;5.03;;;12.70;90.10;;;;;;5072506;28;20040;-73
2024/03/01 02:15:58;;;;;;;12.43;4.72;;;12.70;90.10;;;;;;5072333;28;20029;-72
2024/03/01 02:18:24;;;;;;;15.77;5.43;;;12.70;90.10;;;;;;5072257;28;20389;-73
2024/03/01 02:20:52;;;;;;;11.10;4.75;;;12.70;90.20;;;;;;5072735;28;20037;-74
2024/03/01 02:23:21;;;;;;;17.70;5.35;;;12.70;90.20;;;;;;5072650;28;20039;-74
2024/03/01 02:25:46;;;;;;;13.70;4.85;;;12.70;90.10;;;;;;5072604;28;20199;-74
2024/03/01 02:28:12;;;;;;;15.35;4.97;;;12.70;90.00;;;;;;5072283;28;20068;-73
2024/03/01 02:30:38;;;;;;;13.25;4.53;;;12.70;90.10;;;;;;5072051;28;20044;-73
2024/03/01 02:33:04;;;;;;;12.43;4.60;;;12.60;90.10;;;;;;5072363;28;20036;-72
2024/03/01 02:35:30;;;;;;;13.32;4.68;;;12.60;90.10;;;;;;5072243;28;20056;-72
2024/03/01 02:37:55;;;;;;;18.58;5.22;;;12.60;90.20;;;;;;5072204;28;20043;-73
2024/03/01 02:40:21;;;;;;;15.60;4.13;;;12.60;90.20;;;;;;5072250;28;20033;-72
2024/03/01 02:42:47;;;;;;;19.08;5.35;;;12.50;90.10;;;;;;5071974;28;20067;-72
2024/03/01 02:45:13;;;;;;;14.60;5.03;;;12.50;90.10;;;;;;5071949;28;20106;-73
2024/03/01 02:47:39;;;;;;;15.35;5.10;;;12.50;90.20;;;;;;5072169;28;20048;-73
2024/03/01 02:50:08;;;;;;;12.20;4.10;;;12.40;90.10;;;;;;5071934;28;20032;-73
2024/03/01 02:52:37;;;;;;;17.30;3.85;;;12.40;90.20;;;;;;5074077;28;20032;-74
2024/03/01 02:55:03;;;;;;;10.15;3.60;;;12.40;90.10;;;;;;5076170;28;20044;-73
2024/03/01 02:57:28;;;;;;;12.32;3.92;;;12.40;90.10;;;;;;5075931;28;20365;-73
2024/03/01 02:59:54;;;;;;;13.52;4.20;;;12.40;90.10;;;;;;5075660;28;20040;-73
2024/03/01 03:02:20;;;;;;;9.18;4.05;;;12.30;90.00;;;;;;5075785;28;20033;-73
2024/03/01 03:04:46;;;;;;;13.45;3.67;;;12.40;90.10;;;;;;5075697;28;20044;-73
2024/03/01 03:07:12;;;;;;;10.55;3.88;;;12.40;90.00;;;;;;5075820;28;20036;-73
2024/03/01 03:09:45;;;;;;;13.82;3.95;;;12.40;89.90;;;;;;5075565;28;20059;-72
2024/03/01 03:12:13;;;;;;;14.07;3.60;;;12.40;89.90;;;;;;5075516;28;20475;-72
2024/03/01 03:14:39;;;;;;;11.52;3.45;;;12.50;89.80;;;;;;5075365;28;20037;-72
2024/03/01 03:17:06;;;;;;;11.43;3.67;;;12.50;89.70;;;;;;5075651;28;20395;-73
2024/03/01 03:19:33;;;;;;;12.05;4.00;;;12.50;89.90;;;;;;5075361;28;20037;-72
2024/03/01 03:21:59;;;;;;;11.73;3.35;;;12.50;89.90;;;;;;5075174;28;20036;-73
2024/03/01 03:24:24;;;;;;;13.65;4.10;;;12.50;89.70;;;;;;5075244;28;20102;-73
2024/03/01 03:26:50;;;;;;;15.27;3.90;;;12.50;89.50;;;;;;5075240;28;20040;-73
2024/03/01 03:29:16;;;;;;;21.90;5.15;;;12.60;89.80;;;;;;5075078;28;20387;-74
2024/03/01 03:31:42;;;;;;;12.60;4.15;;;12.60;89.70;;;;;;5075190;28;20041;-73
2024/03/01 03:34:09;;;;;;;9.65;3.60;;;12.50;89.80;;;;;;5075287;28;20040;-73
2024/03/01 03:36:34;;;;;;;9.80;3.22;;;12.50;90.00;;;;;;5075103;28;20477;-72
2024/03/01 03:39:00;;;;;;;13.88;3.35;;;12.40;89.90;;;;;;5075404;28;20045;-73
2024/03/01 03:41:26;;;;;;;12.30;3.25;;;12.40;90.10;;;;;;5075151;28;20028;-72
2024/03/01 03:43:52;;;;;;;16.95;3.20;;;12.40;90.10;;;;;;5075618;28;20033;-74
2024/03/01 03:46:18;;;;;;;12.10;3.20;;;12.40;90.10;;;;;;5075229;28;20063;-73
2024/03/01 03:48:44;;;;;;;11.20;3.05;;;12.40;90.00;;;;;;5074843;28;20032;-73
2024/03/01 03:51:09;;;;;;;10.00;3.17;;;12.30;90.00;;;;;;5075036;28;20127;-74
2024/03/01 03:53:35;;;;;;;13.00;3.28;;;12.30;90.10;;;;;;5074972;28;20484;-74
2024/03/01 03:56:01;;;;;;;12.75;5.00;;;12.30;90.10;;;;;;5074896;28;20029;-72
2024/03/01 03:58:27;;;;;;;13.00;4.00;;;12.30;90.20;;;;;;5074663;28;20036;-72
2024/03/01 04:00:53;;;;;;;10.98;3.70;;;12.30;90.20;;;;;;5074762;28;20079;-73
2024/03/01 04:03:18;;;;;;;18.38;4.50;;;12.20;90.20;;;;;;5073665;28;20517;-73
2024/03/01 04:05:44;;;;;;;13.35;4.95;;;12.20;90.40;;;;;;5056603;28;20523;-73
2024/03/01 04:08:10;;;;;;;13.82;5.13;;;12.20;90.50;;;;;;5074492;28;20036;-73
2024/03/01 04:10:35;;;;;;;16.20;4.90;;;12.20;90.50;;;;;;5074575;28;20047;-72
2024/03/01 04:13:01;;;;;;;15.85;5.15;;;12.20;90.60;;;;;;5074716;28;20036;-73
2024/03/01 04:15:27;;;;;;;14.95;4.70;;;12.20;90.70;;;;;;5074648;28;20025;-73
2024/03/01 04:17:52;;;;;;;12.57;4.32;;;12.20;90.60;;;;;;5074510;28;20094;-73
2024/03/01 04:20:18;;;;;;;13.45;4.57;;;12.20;90.70;;;;;;5074328;28;20424;-73
2024/03/01 04:22:44;;;;;;;15.45;4.85;;;12.10;90.50;;;;;;5074602;28;20025;-73
2024/03/01 04:25:10;;;;;;;12.35;5.25;;;12.10;90.50;;;;;;5074267;28;20037;-73
2024/03/01 04:27:38;;;;;;;18.77;5.57;;;12.10;90.50;;;;;;5074483;28;20028;-74
2024/03/01 04:30:08;;;;;;;15.77;4.97;;;12.10;90.60;;;;;;5056290;28;20080;-73
2024/03/01 04:32:34;;;;;;;13.77;4.60;;;12.10;90.60;;;;;;5073915;28;20056;-74
2024/03/01 04:35:00;;;;;;;13.75;4.32;;;12.10;90.60;;;;;;5074177;28;20033;-73
2024/03/01 04:37:25;;;;;;;11.15;3.67;;;12.10;90.60;;;;;;5073901;28;20043;-72
2024/03/01 04:39:51;;;;;;;10.65;3.60;;;12.20;90.60;;;;;;5074018;28;20473;-72
2024/03/01 04:42:17;;;;;;;11.65;4.30;;;12.20;90.50;;;;;;5074149;28;20111;-73
2024/03/01 04:44:43;;;;;;;13.30;4.43;;;12.20;90.50;;;;;;5073889;28;20032;-73
2024/03/01 04:47:10;;;;;;;16.10;4.30;;;12.20;90.50;;;;;;5073946;28;20062;-74
2024/03/01 04:49:36;;;;;;;12.60;4.03;;;12.30;90.50;;;;;;5073917;28;20035;-73
2024/03/01 04:52:02;;;;;;;15.93;4.53;;;12.20;90.40;;;;;;5074501;28;20045;-74
2024/03/01 04:54:28;;;;;;;15.65;5.05;;;12.30;90.40;;;;;;5073645;28;20083;-73
2024/03/01 04:56:53;;;;;;;8.73;3.55;;;12.30;90.50;;;;;;5073939;28;20040;-74
2024/03/01 04:59:19;;;;;;;17.67;4.03;;;12.40;90.40;;;;;;5073660;28;20075;-73
2024/03/01 05:01:45;;;;;;;16.63;4.70;;;12.40;90.40;;;;;;5073848;28;20111;-73
2024/03/01 05:04:10;;;;;;;9.82;4.03;;;12.40;90.40;;;;;;5073706;28;20040;-73
2024/03/01 05:06:39;;;;;;;12.27;4.00;;;12.40;90.40;;;;;;5073347;28;20032;-73
2024/03/01 05:09:07;;;;;;;14.82;3.67;;;12.50;90.30;;;;;;5055405;28;20036;-74
2024/03/01 05:11:35;;;;;;;12.05;3.17;;;12.50;90.30;;;;;;5073470;28;20174;-73
2024/03/01 05:14:01;;;;;;;13.80;3.13;;;12.50;90.20;;;;;;5073710;28;20388;-74
2024/03/01 05:16:27;;;;;;;10.10;3.20;;;12.60;90.30;;;;;;5073295;28;20075;-72
2024/03/01 05:18:53;;;;;;;12.32;3.30;;;12.60;90.20;;;;;;5073797;28;20133;-73
2024/03/01 05:21:22;;;;;;;13.00;4.70;;;12.50;90.10;;;;;;5073235;28;20178;-72
2024/03/01 05:23:49;;;;;;;12.65;3.95;;;12.50;90.30;;;;;;5073364;28;20442;-73
2024/03/01 05:26:15;;;;;;;10.77;3.10;;;12.50;90.40;;;;;;5073326;28;20097;-73
2024/03/01 05:28:40;;;;;;;15.13;3.10;;;12.60;90.40;;;;;;5073336;28;20067;-74
2024/03/01 05:31:06;;;;;;;13.20;3.25;;;12.60;90.40;;;;;;5073089;28;20055;-73
2024/03/01 05:33:33;;;;;;;13.05;3.42;;;12.60;90.30;;;;;;5072921;28;20051;-73
2024/03/01 05:35:59;;;;;;;18.73;3.70;;;12.60;90.50;;;;;;5073150;28;20365;-73
2024/03/01 05:38:25;;;;;;;10.73;3.28;;;12.60;90.40;;;;;;5072883;28;20039;-74
2024/03/01 05:40:50;;;;;;;12.27;3.88;;;12.60;90.40;;;;;;5072731;28;20068;-74
2024/03/01 05:43:16;;;;;;;13.63;3.45;;;12.60;90.30;;;;;;5073047;28;20040;-74
2024/03/01 05:45:42;;;;;;;11.93;3.40;;;12.60;90.40;;;;;;5072744;28;20036;-73
2024/03/01 05:48:11;;;;;;;10.13;3.20;;;12.60;90.30;;;;;;5072758;28;20028;-74
2024/03/01 05:50:38;;;;;;;25.80;4.13;;;12.70;90.40;;;;;;5072593;28;20032;-74
2024/03/01 05:53:03;;;;;;;15.05;3.88;;;12.60;90.40;;;;;;5072691;28;20043;-74
2024/03/01 05:55:30;;;;;;;11.52;3.35;;;12.70;90.50;;;;;;5072594;28;20091;-74
2024/03/01 05:57:55;;;;;;;14.55;3.35;;;12.70;90.50;;;;;;5072370;28;20043;-73
2024/03/01 06:00:27;;;;;;;13.77;3.38;;;12.60;90.40;;;;;;5072673;28;20029;-73
2024/03/01 06:02:53;;;;;;;12.93;3.17;;;12.70;90.50;;;;;;5072569;28;20558;-73
2024/03/01 06:05:19;;;;;;;12.27;3.13;;;12.70;90.50;;;;;;5072245;28;20029;-74
2024/03/01 06:07:45;;;;;;;14.35;3.60;;;12.70;90.40;;;;;;5072798;28;20029;-75
2024/03/01 06:10:13;;;;;;;12.98;3.45;;;12.80;90.50;;;;;;5054429;28;20435;-74
2024/03/01 06:12:39;;;;;;;22.10;4.38;;;12.80;90.50;;;;;;5072281;28;20037;-73
2024/03/01 06:15:05;;;;;;;14.25;3.60;;;12.80;90.30;;;;;;5072558;28;20400;-73
2024/03/01 06:17:34;;;;;;;12.32;3.88;;;12.80;90.40;;;;;;5072272;28;20385;-74
2024/03/01 06:20:02;;;;;;;16.15;4.03;;;12.80;90.30;;;;;;5072590;28;20034;-73
2024/03/01 06:22:29;;;;;;;14.60;4.60;;;12.70;90.30;;;;;;5072453;28;20074;-73
2024/03/01 06:24:55;;;;;;;20.08;4.00;;;12.70;90.40;;;;;;5072214;28;20055;-74
2024/03/01 06:27:21;;;;;;;13.52;3.40;;;12.70;90.50;;;;;;5074042;28;20040;-73
2024/03/01 06:29:47;;;;;;;19.15;3.28;;;12.70;90.40;;;;;;5076709;28;20100;-74
2024/03/01 06:32:13;;;;;;;18.08;3.90;;;12.70;90.40;;;;;;5058165;28;20052;-74
2024/03/01 06:34:38;;;;;;;13.27;3.92;;;12.70;90.30;;;;;;5076254;28;20464;-74
2024/03/01 06:37:04;;;;;;;15.43;3.70;;;12.70;90.30;;;;;;5076148;28;20044;-74
2024/03/01 06:39:30;;;;;;;12.68;3.70;;;12.80;90.30;;;;;;5075929;28;20372;-74
2024/03/01 06:41:56;;;;;;;13.35;3.63;;;12.80;90.30;;;;;;5076402;28;20036;-75
2024/03/01 06:44:25;;;;;;;10.48;3.25;;;12.90;90.30;;;;;;5076267;28;20100;-74
2024/03/01 06:46:52;;;;;;;13.93;4.07;;;13.00;90.30;;;;;;5076042;28;20040;-74
2024/03/01 06:49:18;;;;;;;20.38;4.35;;;13.00;90.30;;;;;;5075884;28;20021;-76
2024/03/01 06:51:44;;;;;;;13.15;3.28;;;13.00;90.20;;;;;;5076523;28;20036;-75
2024/03/01 06:54:10;;;;;;;15.27;3.42;;;13.00;90.20;;;;;;5076720;28;20032;-76
2024/03/01 06:56:40;;;;;;;18.27;3.95;;;13.10;90.20;;;;;;5076480;28;20086;-76
2024/03/01 06:59:06;;;;;;;11.32;3.40;;;13.10;90.10;;;;;;5058113;28;20039;-76
2024/03/01 07:01:32;;;;;;;15.18;3.60;;;13.20;90.10;;;;;;5075751;28;20051;-76
2024/03/01 07:03:58;;;;;;;25.77;3.92;;;13.20;90.10;;;;;;5075846;28;20531;-75
2024/03/01 07:06:24;;;;;;;14.98;4.22;;;13.20;90.10;;;;;;5075824;28;20064;-75
2024/03/01 07:08:49;;;;;;;15.82;3.65;;;13.30;90.00;;;;;;5077269;28;20028;-76
2024/03/01 07:11:15;;;;;;;13.18;3.15;;;13.30;89.80;;;;;;5077702;28;20040;-75
2024/03/01 07:13:41;;;;;;;11.68;3.22;;;13.30;89.90;;;;;;5075510;28;20029;-73
2024/03/01 07:16:07;;;;;;;22.63;3.75;;;13.40;89.80;;;;;;5075807;28;20036;-74
2024/03/01 07:18:32;;;;;;;13.25;3.05;;;13.40;90.00;;;;;;5075555;28;20052;-75
2024/03/01 07:20:58;;;;;;;14.05;4.05;;;13.50;89.80;;;;;;5075374;28;20456;-75
2024/03/01 07:23:24;;;;;;;15.82;3.30;;;13.50;89.50;;;;;;5075334;28;20176;-75
2024/03/01 07:25:49;;;;;;;25.85;4.65;;;13.60;89.50;;;;;;5075347;28;20041;-75
2024/03/01 07:28:15;;;;;;;18.55;3.40;;;13.60;89.40;;;;;;5075230;28;20039;-74
2024/03/01 07:30:42;;;;;;;16.55;3.90;;;13.60;89.50;;;;;;5074932;28;20396;-74
2024/03/01 07:33:08;;;;;;;12.55;3.78;;;13.70;89.90;;;;;;5075135;28;20432;-74
2024/03/01 07:35:34;;;;;;;14.18;4.10;;;13.70;89.70;;;;;;5056834;28;20059;-74
2024/03/01 07:37:59;;;;;;;19.27;3.85;;;13.80;89.80;;;;;;5056992;28;20064;-74
2024/03/01 07:40:25;;;;;;;15.68;3.45;;;13.80;89.20;;;;;;5074996;28;20110;-73
2024/03/01 07:42:51;;;;;;;235.55;24.60;;;13.90;89.30;;;;;;5073720;28;20040;-72
2024/03/01 07:45:16;;;;;;;169.85;20.50;;;14.00;89.00;;;;;;5074832;28;20035;-75
2024/03/01 07:47:44;;;;;;;214.98;22.42;;;14.10;89.00;;;;;;5074849;28;20040;-76
2024/03/01 07:50:10;;;;;;;172.27;18.42;;;14.20;89.00;;;;;;5074853;28;20094;-73
2024/03/01 07:52:36;;;;;;;43.90;6.53;;;14.20;88.60;;;;;;5074943;28;20097;-77
2024/03/01 07:55:02;;;;;;;37.55;5.80;;;14.30;88.50;;;;;;5074405;28;20452;-75
2024/03/01 07:57:28;;;;;;;31.77;4.90;;;14.30;88.30;;;;;;5074464;28;20079;-73
2024/03/01 07:59:54;;;;;;;25.90;4.25;;;14.40;88.30;;;;;;5074694;28;20033;-73
2024/03/01 08:02:20;;;;;;;15.00;3.85;;;14.50;88.10;;;;;;5074360;28;20476;-73
2024/03/01 08:04:45;;;;;;;23.00;4.65;;;14.60;87.80;;;;;;5074224;28;20028;-74
2024/03/01 08:07:14;;;;;;;13.27;3.65;;;14.80;87.50;;;;;;5073977;28;20036;-73
2024/03/01 08:09:40;;;;;;;15.80;3.08;;;15.10;86.80;;;;;;5074180;28;20028;-75
2024/03/01 08:12:11;;;;;;;11.23;2.97;;;15.20;86.10;;;;;;5074204;28;20052;-73
2024/03/01 08:14:37;;;;;;;10.68;2.53;;;15.40;86.50;;;;;;5073978;28;20523;-75
2024/03/01 08:17:06;;;;;;;14.20;3.20;;;15.50;85.00;;;;;;5073870;28;20024;-75
2024/03/01 08:19:44;;;;;;;11.70;2.90;;;15.70;84.80;;;;;;5074108;28;20056;-75
2024/03/01 08:22:16;;;;;;;9.55;3.03;;;15.80;84.40;;;;;;5073854;28;20043;-74
2024/03/01 08:24:46;;;;;;;11.60;3.33;;;15.90;84.20;;;;;;5073783;28;20349;-77
2024/03/01 08:27:21;;;;;;;10.65;2.90;;;16.00;83.60;;;;;;5074158;28;20056;-73
2024/03/01 08:29:47;;;;;;;16.55;2.45;;;16.10;83.10;;;;;;5073702;28;20078;-74
2024/03/01 08:32:43;;;;;;;8.35;1.60;;;16.20;82.40;;;;;;5073793;28;20554;-76
2024/03/01 08:35:16;;;;;;;13.25;2.13;;;16.40;82.30;;;;;;5073643;28;20035;-75
2024/03/01 08:37:42;;;;;;;9.90;1.75;;;16.60;81.00;;;;;;5073785;28;20033;-74
2024/03/01 08:40:54;;;;;;;8.18;1.67;;;16.80;80.70;;;;;;5073678;28;20033;-75
2024/03/01 08:43:20;;;;;;;8.60;1.80;;;16.90;79.50;;;;;;5073388;28;20032;-73
2024/03/01 08:45:46;;;;;;;9.52;2.10;;;16.90;79.40;;;;;;5071981;28;20041;-73
2024/03/01 08:48:21;;;;;;;15.50;1.98;;;16.90;79.00;;;;;;5073346;28;20486;-73
2024/03/01 08:50:51;;;;;;;8.05;2.30;;;16.90;78.70;;;;;;5072464;28;20086;-74
2024/03/01 08:53:42;;;;;;;12.13;2.40;;;17.00;78.80;;;;;;5073297;28;20036;-77
2024/03/01 08:56:20;;;;;;;14.88;2.22;;;17.00;78.70;;;;;;5073536;28;20147;-77
2024/03/01 08:58:46;;;;;;;12.52;2.45;;;17.10;78.80;;;;;;5073253;28;20044;-76
2024/03/01 09:01:31;;;;;;;15.82;1.80;;;17.10;78.70;;;;;;5068437;28;20124;-78
2024/03/01 09:04:12;;;;;;;6.22;2.10;;;17.10;79.00;;;;;;5061145;28;20484;-77
2024/03/01 09:06:39;;;;;;;9.43;2.08;;;17.10;79.00;;;;;;5045803;28;20048;-77
2024/03/01 09:09:05;;;;;;;10.65;2.20;;;17.10;79.00;;;;;;5060926;28;20024;-78
2024/03/01 09:11:32;;;;;;;10.57;1.90;;;17.00;79.00;;;;;;5061235;28;20036;-77
2024/03/01 09:13:58;;;;;;;7.82;2.17;;;17.00;79.20;;;;;;5053028;28;20054;-77
2024/03/01 09:16:24;;;;;;;13.38;2.83;;;17.00;79.40;;;;;;5063275;28;20041;-75
2024/03/01 09:18:51;;;;;;;11.38;1.90;;;16.90;79.50;;;;;;5063334;28;20043;-76
2024/03/01 09:21:33;;;;;;;9.40;2.30;;;16.90;79.70;;;;;;5061810;28;20036;-78
2024/03/01 09:24:00;;;;;;;9.93;2.95;;;16.80;79.70;;;;;;5064211;28;20052;-77
2024/03/01 09:26:26;;;;;;;12.68;2.63;;;16.70;80.00;;;;;;5062478;28;20037;-76
2024/03/01 09:28:57;;;;;;;7.78;2.03;;;16.70;80.10;;;;;;5058347;28;20365;-76
2024/03/01 09:31:22;;;;;;;8.35;2.53;;;16.80;80.10;;;;;;5052298;28;20056;-76
2024/03/01 09:33:48;;;;;;;10.32;2.70;;;16.80;79.80;;;;;;5052712;28;20025;-76
2024/03/01 09:36:19;;;;;;;10.27;2.20;;;17.00;79.60;;;;;;5052614;28;20051;-77
2024/03/01 09:38:54;;;;;;;8.23;1.80;;;17.20;79.20;;;;;;5052921;28;20064;-78
2024/03/01 09:41:41;;;;;;;11.23;2.55;;;17.40;78.60;;;;;;5052682;28;20091;-75
2024/03/01 09:44:20;;;;;;;8.18;1.98;;;17.60;78.20;;;;;;5034483;28;20041;-75
2024/03/01 09:47:11;;;;;;;8.05;1.98;;;17.70;77.50;;;;;;5052393;28;20060;-75
2024/03/01 09:50:01;;;;;;;22.02;3.55;;;17.80;77.20;;;;;;5052437;28;20048;-76
2024/03/01 09:52:42;;;;;;;6.70;2.10;;;18.00;76.90;;;;;;5052670;28;20029;-76
2024/03/01 09:55:37;;;;;;;8.65;2.30;;;18.10;76.50;;;;;;5067424;28;20040;-76
2024/03/01 09:58:24;;;;;;;10.02;2.13;;;18.20;76.40;;;;;;5068641;28;20098;-75
2024/03/01 10:01:13;;;;;;;5.57;1.70;;;18.20;76.00;;;;;;5069002;28;20037;-73
2024/03/01 10:03:48;;;;;;;10.02;1.98;;;18.20;75.80;;;;;;5064857;28;20052;-72
2024/03/01 10:06:42;;;;;;;7.28;1.60;;;18.10;75.50;;;;;;5067603;28;20562;-75
2024/03/01 10:09:20;;;;;;;8.95;2.00;;;18.10;75.60;;;;;;5069388;28;20024;-74
2024/03/01 10:12:04;;;;;;;5.80;1.92;;;18.20;75.80;;;;;;5064233;28;20114;-78
2024/03/01 10:14:54;;;;;;;11.32;1.90;;;18.20;75.20;;;;;;5070297;28;20078;-75
2024/03/01 10:17:44;;;;;;;5.18;1.58;;;18.30;75.10;;;;;;5047990;28;20046;-75
2024/03/01 10:20:34;;;;;;;7.88;2.10;;;18.20;75.10;;;;;;5049486;28;20032;-76
2024/03/01 10:23:12;;;;;;;8.10;1.92;;;18.30;75.00;;;;;;5067013;28;20480;-76
2024/03/01 10:26:02;;;;;;;8.45;1.88;;;18.20;75.20;;;;;;5071265;28;20111;-74
2024/03/01 10:28:34;;;;;;;8.50;1.77;;;18.20;75.10;;;;;;5072369;28;20077;-74
2024/03/01 10:31:13;;;;;;;10.10;2.20;;;18.10;74.80;;;;;;5061492;28;20385;-75
2024/03/01 10:33:52;;;;;;;211.00;21.95;;;18.00;75.10;;;;;;5071420;28;20180;-75
2024/03/01 10:36:35;;;;;;;58.45;7.97;;;17.90;75.10;;;;;;5070036;28;20138;-75
2024/03/01 10:39:12;;;;;;;7.78;1.40;;;17.70;75.20;;;;;;5070173;28;20037;-74
2024/03/01 10:41:59;;;;;;;17.05;2.55;;;17.30;75.20;;;;;;5070799;28;20069;-73
2024/03/01 10:44:30;;;;;;;6.78;1.60;;;16.90;76.00;;;;;;5075820;28;20120;-73
2024/03/01 10:47:13;;;;;;;7.85;1.33;;;16.60;77.10;;;;;;5063679;28;20135;-74
2024/03/01 10:50:19;;;;;;;11.45;1.70;;;16.30;77.90;;;;;;5065106;28;20112;-75
2024/03/01 10:53:38;;;;;;;8.75;1.60;;;16.00;78.60;;;;;;5060770;28;20120;-74
2024/03/01 10:56:06;;;;;;;6.30;2.05;;;15.60;78.90;;;;;;4951580;28;20039;-74
2024/03/01 10:59:05;;;;;;;9.43;1.55;;;15.30;79.40;;;;;;4951373;28;20046;-74
2024/03/01 11:01:50;;;;;;;5.95;1.48;;;15.10;80.20;;;;;;5027859;28;20064;-74
2024/03/01 11:04:46;;;;;;;6.60;1.20;;;14.90;80.40;;;;;;5060497;28;20033;-76
2024/03/01 11:07:18;;;;;;;6.90;2.03;;;14.80;80.80;;;;;;5051432;28;20045;-73
2024/03/01 11:09:57;;;;;;;7.63;1.75;;;14.70;80.90;;;;;;5051687;28;20033;-75
2024/03/01 11:12:37;;;;;;;5.18;1.40;;;14.70;81.10;;;;;;5051890;28;20412;-74
2024/03/01 11:15:07;;;;;;;5.75;1.70;;;14.60;81.60;;;;;;5055349;28;20055;-73
2024/03/01 11:17:37;;;;;;;5.18;1.85;;;14.60;81.40;;;;;;5067496;28;20048;-71
2024/03/01 11:20:23;;;;;;;6.28;1.63;;;14.50;81.70;;;;;;5059966;28;20512;-75
2024/03/01 11:23:42;;;;;;;4.05;1.50;;;14.50;82.30;;;;;;5055464;28;20078;-75
2024/03/01 11:26:11;;;;;;;5.05;2.10;;;14.50;82.80;;;;;;5022755;28;20527;-75
2024/03/01 11:28:40;;;;;;;16.50;3.42;;;14.50;82.70;;;;;;5055525;28;20083;-75
2024/03/01 11:31:18;;;;;;;32.05;4.40;;;14.60;82.80;;;;;;5068269;28;20041;-73
2024/03/01 11:33:45;;;;;;;6.85;2.20;;;14.60;83.20;;;;;;5036572;28;20107;-74
2024/03/01 11:36:30;;;;;;;8.00;1.98;;;14.70;84.20;;;;;;5053438;28;20092;-73
2024/03/01 11:39:21;;;;;;;8.75;1.92;;;14.80;83.60;;;;;;5053039;28;20084;-74
2024/03/01 11:41:49;;;;;;;6.95;1.52;;;14.90;83.70;;;;;;5053745;28;20029;-74
2024/03/01 11:44:43;;;;;;;6.43;1.85;;;14.90;83.50;;;;;;5054767;28;20493;-73
2024/03/01 11:47:28;;;;;;;10.93;4.32;;;15.00;83.60;;;;;;5036487;28;20049;-73
2024/03/01 11:50:30;;;;;;;9.98;3.00;;;15.20;83.40;;;;;;5036412;28;20078;-73
2024/03/01 11:53:16;;;;;;;8.30;2.70;;;15.30;83.50;;;;;;5054532;28;20029;-74
2024/03/01 11:55:42;;;;;;;7.63;2.40;;;15.50;83.60;;;;;;5054724;28;20108;-74
2024/03/01 11:58:20;;;;;;;6.10;2.28;;;15.60;83.50;;;;;;5054531;28;20460;-73
2024/03/01 12:01:10;;;;;;;7.53;1.73;;;15.70;83.80;;;;;;5054313;28;20140;-73
2024/03/01 12:03:55;;;;;;;6.88;2.20;;;15.80;83.90;;;;;;5036103;28;20378;-73
2024/03/01 12:06:40;;;;;;;6.82;1.77;;;16.00;83.90;;;;;;5054111;28;20076;-73
2024/03/01 12:09:48;;;;;;;3.50;1.65;;;16.20;84.00;;;;;;5054119;28;20048;-74
2024/03/01 12:12:38;;;;;;;5.35;1.77;;;16.30;83.80;;;;;;5054483;28;20041;-74
2024/03/01 12:15:10;;;;;;;3.92;1.60;;;16.50;83.50;;;;;;5054032;28;20040;-74
2024/03/01 12:17:57;;;;;;;4.90;1.92;;;16.70;82.80;;;;;;5054088;28;20397;-74
2024/03/01 12:20:24;;;;;;;2.90;1.05;;;16.80;83.10;;;;;;5053810;28;20037;-74
2024/03/01 12:23:03;;;;;;;4.07;1.30;;;17.00;82.40;;;;;;5053616;28;20041;-73
2024/03/01 12:25:29;;;;;;;5.70;1.50;;;17.20;81.80;;;;;;5052899;28;20033;-72
2024/03/01 12:28:13;;;;;;;3.40;1.23;;;17.30;80.70;;;;;;5052484;28;20074;-73
2024/03/01 12:30:47;;;;;;;7.65;2.00;;;17.30;80.60;;;;;;5053670;28;20052;-73
2024/03/01 12:33:37;;;;;;;3.60;1.70;;;17.40;79.70;;;;;;5053848;28;20470;-73
2024/03/01 12:36:20;;;;;;;2.40;1.20;;;17.50;79.00;;;;;;5054143;28;20057;-73
2024/03/01 12:38:53;;;;;;;3.63;1.70;;;17.60;78.50;;;;;;5053836;28;20059;-74
2024/03/01 12:41:37;;;;;;;3.72;1.35;;;17.80;77.90;;;;;;5053996;28;20041;-72
2024/03/01 12:44:36;;;;;;;3.40;1.20;;;17.90;77.30;;;;;;5057564;28;20076;-77
2024/03/01 12:47:04;;;;;;;2.53;0.95;;;18.00;77.10;;;;;;5068122;28;20048;-76
2024/03/01 12:50:11;;;;;;;1.95;1.10;;;17.80;76.70;;;;;;5073450;28;20119;-74
2024/03/01 12:53:01;;;;;;;3.58;1.42;;;17.70;76.50;;;;;;5073372;28;20041;-70
2024/03/01 12:55:47;;;;;;;7.78;1.60;;;17.60;76.80;;;;;;5073233;28;20032;-72
2024/03/01 12:58:28;;;;;;;9.02;1.77;;;17.60;76.60;;;;;;5066952;28;20028;-71